Time;durP1;ratioP1;P1;durP2;ratioP2;P2;SDS_P1;SDS_P2;PMS_P1;PMS_P2;Temp;Humidity;BMP_temperature;BMP_pressure;BME280_temperature;BME280_humidity;BME280_pressure;Samples;Min_cycle;Max_cycle;Signal;HPM_P1;HPM_P2
2022/04/23 00:02:15;;;;;;;11.85;4.28;;;4.00;99.90;;;;;;5041036;28;20163;-64
2022/04/23 00:04:43;;;;;;;5.47;3.22;;;4.00;99.90;;;;;;5032309;28;20837;-66
2022/04/23 00:07:10;;;;;;;7.20;3.42;;;4.00;99.90;;;;;;5041552;28;20457;-65
2022/04/23 00:09:37;;;;;;;6.60;4.05;;;4.00;99.90;;;;;;5031180;28;20140;-66
2022/04/23 00:12:04;;;;;;;5.15;3.10;;;3.90;99.90;;;;;;5034119;28;20134;-64
2022/04/23 00:14:33;;;;;;;4.97;3.22;;;3.90;99.90;;;;;;5028718;28;20056;-66
2022/04/23 00:17:02;;;;;;;9.07;3.70;;;3.90;99.90;;;;;;5025196;28;20065;-67
2022/04/23 00:19:29;;;;;;;6.95;2.97;;;3.90;99.90;;;;;;5024378;28;20052;-65
2022/04/23 00:21:56;;;;;;;6.32;2.80;;;3.90;99.90;;;;;;5023706;28;20459;-67
2022/04/23 00:24:22;;;;;;;6.78;4.43;;;3.80;99.90;;;;;;5026359;28;20088;-65
2022/04/23 00:26:49;;;;;;;6.10;2.80;;;3.80;99.90;;;;;;5031849;28;20091;-69
2022/04/23 00:29:17;;;;;;;4.93;2.83;;;3.90;99.90;;;;;;5022996;28;20563;-66
2022/04/23 00:31:44;;;;;;;7.40;2.92;;;3.80;99.90;;;;;;5035647;28;20073;-65
2022/04/23 00:34:11;;;;;;;5.70;3.53;;;3.80;99.90;;;;;;5040378;28;20044;-66
2022/04/23 00:36:38;;;;;;;7.82;3.90;;;3.80;99.90;;;;;;5037574;28;20095;-67
2022/04/23 00:39:05;;;;;;;4.60;2.72;;;3.80;99.90;;;;;;5040343;28;20103;-67
2022/04/23 00:41:45;;;;;;;6.57;2.95;;;3.80;99.90;;;;;;5041126;28;20136;-68
2022/04/23 00:44:16;;;;;;;5.85;3.35;;;3.80;99.90;;;;;;5025368;28;20489;-69
2022/04/23 00:46:44;;;;;;;5.18;2.47;;;3.80;99.90;;;;;;5026744;28;20175;-66
2022/04/23 00:49:12;;;;;;;3.80;2.55;;;3.80;99.90;;;;;;5025812;28;20437;-66
2022/04/23 00:51:41;;;;;;;6.47;3.05;;;3.80;99.90;;;;;;5026914;28;20050;-66
2022/04/23 00:54:09;;;;;;;12.20;5.38;;;3.90;99.90;;;;;;5040701;28;20127;-64
2022/04/23 00:56:38;;;;;;;6.10;3.80;;;3.90;99.90;;;;;;5030801;28;20083;-66
2022/04/23 00:59:11;;;;;;;8.18;3.30;;;3.90;99.90;;;;;;5038246;28;20711;-65
2022/04/23 01:01:40;;;;;;;10.93;2.80;;;3.90;99.90;;;;;;5030560;28;20087;-69
2022/04/23 01:04:08;;;;;;;7.68;2.83;;;3.90;99.90;;;;;;5029644;28;20132;-68
2022/04/23 01:06:36;;;;;;;4.35;2.50;;;3.90;99.90;;;;;;5038086;28;20112;-67
2022/04/23 01:09:05;;;;;;;3.67;1.98;;;3.90;99.90;;;;;;5041736;28;20064;-71
2022/04/23 01:11:33;;;;;;;2.92;2.08;;;3.90;99.90;;;;;;5043146;28;20068;-67
2022/04/23 01:14:01;;;;;;;5.50;2.63;;;3.90;99.90;;;;;;5042910;28;20075;-66
2022/04/23 01:16:29;;;;;;;7.53;2.17;;;3.90;99.90;;;;;;5053259;28;20065;-64
2022/04/23 01:18:56;;;;;;;2.22;2.00;;;3.90;99.90;;;;;;5034564;28;20489;-67
2022/04/23 01:21:23;;;;;;;11.32;2.85;;;3.90;99.90;;;;;;5043689;28;20155;-65
2022/04/23 01:23:53;;;;;;;5.90;2.75;;;3.90;99.90;;;;;;5042437;28;20136;-71
2022/04/23 01:26:28;;;;;;;10.63;3.05;;;3.90;99.90;;;;;;5027202;28;20045;-66
2022/04/23 01:28:57;;;;;;;7.20;2.92;;;3.90;99.90;;;;;;5043510;28;20041;-65
2022/04/23 01:31:25;;;;;;;6.88;3.97;;;3.90;99.90;;;;;;5034266;28;20806;-65
2022/04/23 01:33:52;;;;;;;7.18;2.78;;;3.90;99.90;;;;;;5033421;28;20060;-66
2022/04/23 01:36:20;;;;;;;4.72;1.90;;;3.90;99.90;;;;;;5025439;28;20098;-70
2022/04/23 01:38:47;;;;;;;5.00;3.28;;;3.90;99.90;;;;;;5028103;28;20058;-66
2022/04/23 01:41:14;;;;;;;5.53;2.75;;;3.90;99.90;;;;;;5030381;28;20083;-67
2022/04/23 01:43:41;;;;;;;9.50;2.38;;;3.90;99.90;;;;;;5033365;28;20122;-68
2022/04/23 01:46:08;;;;;;;14.50;3.25;;;3.90;99.90;;;;;;5038055;28;20095;-68
2022/04/23 01:48:35;;;;;;;5.30;1.85;;;3.90;99.90;;;;;;5044681;28;20385;-68
2022/04/23 01:51:02;;;;;;;7.47;2.20;;;3.90;99.90;;;;;;5045645;28;20122;-71
2022/04/23 01:53:29;;;;;;;3.63;2.20;;;3.90;99.90;;;;;;5029320;28;20044;-67
2022/04/23 01:55:56;;;;;;;8.25;2.60;;;3.90;99.90;;;;;;5038467;28;20048;-65
2022/04/23 01:58:23;;;;;;;5.78;3.10;;;4.00;99.90;;;;;;5039027;28;20044;-69
2022/04/23 02:00:51;;;;;;;6.93;2.53;;;4.00;99.90;;;;;;5026973;28;20072;-66
2022/04/23 02:03:18;;;;;;;5.82;2.10;;;4.00;99.90;;;;;;5036154;28;20107;-64
2022/04/23 02:05:45;;;;;;;8.00;2.33;;;4.00;99.90;;;;;;5041793;28;20395;-68
2022/04/23 02:08:16;;;;;;;9.20;3.63;;;4.00;99.90;;;;;;5037728;28;20585;-65
2022/04/23 02:10:43;;;;;;;6.50;2.13;;;4.00;99.90;;;;;;5034822;28;21443;-65
2022/04/23 02:13:11;;;;;;;8.57;2.58;;;4.00;99.90;;;;;;5033075;28;20037;-68
2022/04/23 02:15:40;;;;;;;7.88;1.80;;;4.00;99.90;;;;;;5031135;28;20152;-65
2022/04/23 02:18:08;;;;;;;6.78;2.13;;;4.00;99.90;;;;;;5029352;28;20128;-67
2022/04/23 02:20:35;;;;;;;3.90;2.63;;;4.00;99.90;;;;;;5041902;28;20467;-65
2022/04/23 02:23:03;;;;;;;9.40;2.28;;;4.00;99.90;;;;;;5041702;28;20356;-68
2022/04/23 02:25:34;;;;;;;5.70;2.20;;;4.00;99.90;;;;;;5049396;28;20060;-65
2022/04/23 02:28:02;;;;;;;4.22;1.90;;;4.00;99.90;;;;;;5039361;28;20053;-72
2022/04/23 02:30:29;;;;;;;7.32;2.60;;;4.00;99.90;;;;;;5033502;28;20065;-66
2022/04/23 02:32:56;;;;;;;9.88;3.35;;;4.00;99.90;;;;;;5033411;28;20065;-64
2022/04/23 02:35:24;;;;;;;2.92;2.28;;;4.00;99.90;;;;;;5017870;28;20144;-66
2022/04/23 02:37:56;;;;;;;9.55;2.55;;;4.00;99.90;;;;;;5041943;28;20057;-66
2022/04/23 02:40:23;;;;;;;6.30;2.45;;;4.10;99.90;;;;;;5043015;28;20478;-64
2022/04/23 02:42:51;;;;;;;4.28;1.98;;;4.10;99.90;;;;;;5041247;28;20843;-69
2022/04/23 02:45:20;;;;;;;4.50;1.52;;;4.10;99.90;;;;;;5023814;28;20132;-66
2022/04/23 02:47:57;;;;;;;7.00;1.95;;;4.10;99.90;;;;;;5025888;28;20041;-69
2022/04/23 02:50:32;;;;;;;6.53;1.98;;;4.10;99.90;;;;;;5026848;28;20041;-64
2022/04/23 02:53:00;;;;;;;9.75;3.10;;;4.10;99.90;;;;;;5036678;28;20041;-67
2022/04/23 02:55:31;;;;;;;5.07;1.20;;;4.10;99.90;;;;;;5025535;28;20038;-67
2022/04/23 02:58:07;;;;;;;10.80;2.35;;;4.10;99.90;;;;;;5028282;28;20069;-66
2022/04/23 03:00:39;;;;;;;4.13;2.13;;;4.10;99.90;;;;;;5039598;28;20033;-66
2022/04/23 03:03:10;;;;;;;3.45;1.55;;;4.10;99.90;;;;;;5044562;28;20044;-66
2022/04/23 03:05:42;;;;;;;7.28;2.70;;;4.00;99.90;;;;;;5044440;28;20045;-66
2022/04/23 03:08:12;;;;;;;7.80;2.25;;;4.10;99.90;;;;;;5031072;28;20760;-66
2022/04/23 03:10:39;;;;;;;6.80;2.30;;;4.10;99.90;;;;;;5034684;28;20140;-65
2022/04/23 03:13:08;;;;;;;3.47;1.50;;;4.10;99.90;;;;;;5034122;28;20055;-67
2022/04/23 03:15:36;;;;;;;4.88;1.50;;;4.10;99.90;;;;;;5041885;28;20604;-71
2022/04/23 03:18:05;;;;;;;3.90;1.67;;;4.10;99.90;;;;;;5032076;28;20060;-65
2022/04/23 03:20:32;;;;;;;9.07;2.20;;;4.10;99.90;;;;;;5043905;28;20057;-65
2022/04/23 03:23:00;;;;;;;15.52;2.72;;;4.10;99.90;;;;;;5045362;28;20087;-66
2022/04/23 03:25:27;;;;;;;4.88;1.73;;;4.10;99.90;;;;;;5036809;28;20076;-69
2022/04/23 03:27:55;;;;;;;3.78;1.75;;;4.10;99.90;;;;;;5043306;28;20131;-65
2022/04/23 03:30:22;;;;;;;11.15;2.42;;;4.10;99.90;;;;;;5043371;28;20141;-66
2022/04/23 03:32:49;;;;;;;4.38;1.73;;;4.10;99.90;;;;;;5031988;28;20423;-67
2022/04/23 03:35:15;;;;;;;4.35;1.42;;;4.10;99.90;;;;;;5033920;28;20047;-65
2022/04/23 03:37:43;;;;;;;7.93;2.08;;;4.10;99.90;;;;;;5039201;28;20145;-67
2022/04/23 03:40:11;;;;;;;5.82;2.25;;;4.20;99.90;;;;;;5037186;28;20141;-66
2022/04/23 03:42:38;;;;;;;3.78;2.03;;;4.20;99.90;;;;;;5036824;28;20131;-66
2022/04/23 03:45:06;;;;;;;6.93;2.97;;;4.10;99.90;;;;;;5033020;28;20049;-67
2022/04/23 03:47:33;;;;;;;6.85;1.75;;;4.20;99.90;;;;;;5028510;28;20134;-71
2022/04/23 03:50:07;;;;;;;11.13;2.78;;;4.20;99.90;;;;;;5027388;28;20231;-67
2022/04/23 03:52:34;;;;;;;8.30;1.90;;;4.20;99.90;;;;;;5032854;28;20064;-64
2022/04/23 03:55:04;;;;;;;5.68;2.60;;;4.20;99.90;;;;;;5022209;28;20053;-67
2022/04/23 03:57:32;;;;;;;3.50;1.95;;;4.20;99.90;;;;;;5024129;28;20049;-67
2022/04/23 04:00:04;;;;;;;5.28;1.92;;;4.20;99.90;;;;;;5031406;28;20131;-69
2022/04/23 04:02:31;;;;;;;6.53;1.95;;;4.30;99.90;;;;;;5036972;28;20056;-69
2022/04/23 04:04:58;;;;;;;3.72;1.50;;;4.30;99.90;;;;;;5034251;28;20044;-66
2022/04/23 04:07:25;;;;;;;6.75;1.50;;;4.30;99.90;;;;;;5035279;28;20072;-65
2022/04/23 04:09:52;;;;;;;8.65;2.60;;;4.30;99.90;;;;;;5031416;28;20041;-68
2022/04/23 04:12:18;;;;;;;3.47;1.55;;;4.30;99.90;;;;;;5028195;28;20523;-65
2022/04/23 04:14:46;;;;;;;4.72;1.67;;;4.30;99.90;;;;;;5038845;28;20041;-65
2022/04/23 04:17:15;;;;;;;3.25;1.52;;;4.30;99.90;;;;;;5032965;28;20086;-66
2022/04/23 04:19:42;;;;;;;5.38;3.35;;;4.30;99.90;;;;;;5029495;28;20084;-68
2022/04/23 04:22:09;;;;;;;4.90;1.85;;;4.30;99.90;;;;;;5036525;28;20554;-65
2022/04/23 04:24:36;;;;;;;5.55;1.65;;;4.40;99.90;;;;;;5032261;28;20037;-64
2022/04/23 04:27:06;;;;;;;2.53;1.42;;;4.40;99.90;;;;;;5034101;28;20061;-64
2022/04/23 04:29:33;;;;;;;9.50;2.05;;;4.40;99.90;;;;;;5033925;28;20079;-67
2022/04/23 04:32:00;;;;;;;4.68;1.63;;;4.40;99.90;;;;;;5039864;28;20045;-66
2022/04/23 04:34:29;;;;;;;5.75;2.50;;;4.50;99.90;;;;;;5034367;28;20049;-65
2022/04/23 04:37:08;;;;;;;10.40;2.80;;;4.50;99.90;;;;;;5026913;28;20753;-67
2022/04/23 04:39:40;;;;;;;4.63;2.10;;;4.60;99.90;;;;;;5025488;28;20293;-67
2022/04/23 04:42:08;;;;;;;9.40;2.47;;;4.60;99.90;;;;;;5022256;28;20096;-64
2022/04/23 04:44:35;;;;;;;9.90;2.75;;;4.60;99.90;;;;;;5028393;28;20042;-65
2022/04/23 04:47:09;;;;;;;6.13;1.88;;;4.60;99.90;;;;;;5036375;28;20045;-67
2022/04/23 04:49:37;;;;;;;3.75;1.65;;;4.50;99.90;;;;;;5029401;28;20359;-66
2022/04/23 04:52:05;;;;;;;2.72;1.55;;;4.60;99.90;;;;;;5029454;28;20148;-66
2022/04/23 04:54:32;;;;;;;4.07;1.92;;;4.60;99.90;;;;;;5026151;28;20037;-68
2022/04/23 04:57:02;;;;;;;6.80;1.45;;;4.50;99.90;;;;;;5027552;28;20060;-66
2022/04/23 04:59:32;;;;;;;6.63;3.03;;;4.50;99.90;;;;;;5029271;28;20485;-68
2022/04/23 05:02:00;;;;;;;5.05;1.90;;;4.50;99.90;;;;;;5031105;28;20124;-69
2022/04/23 05:04:28;;;;;;;4.93;1.63;;;4.50;99.90;;;;;;5032597;28;20115;-68
2022/04/23 05:06:55;;;;;;;3.78;1.63;;;4.50;99.90;;;;;;5032608;28;20100;-65
2022/04/23 05:09:22;;;;;;;2.80;1.77;;;4.60;99.90;;;;;;5023643;28;20593;-67
2022/04/23 05:11:49;;;;;;;5.68;1.92;;;4.50;99.90;;;;;;5026287;28;20132;-67
2022/04/23 05:14:16;;;;;;;6.53;1.35;;;4.50;99.90;;;;;;5039710;28;20045;-64
2022/04/23 05:16:44;;;;;;;1.60;1.17;;;4.50;99.90;;;;;;5035344;28;20069;-64
2022/04/23 05:19:11;;;;;;;2.75;1.65;;;4.60;99.90;;;;;;5042648;28;20235;-69
2022/04/23 05:21:38;;;;;;;5.72;2.28;;;4.60;99.90;;;;;;5043779;28;20065;-64
2022/04/23 05:24:06;;;;;;;5.97;2.38;;;4.60;99.90;;;;;;5040431;28;20048;-69
2022/04/23 05:26:35;;;;;;;12.52;4.57;;;4.70;99.90;;;;;;5036342;28;20192;-71
2022/04/23 05:29:03;;;;;;;11.48;4.47;;;4.70;99.90;;;;;;5048288;28;20032;-65
2022/04/23 05:31:32;;;;;;;6.25;2.67;;;4.70;99.90;;;;;;5038905;28;20038;-65
2022/04/23 05:33:59;;;;;;;12.75;2.08;;;4.70;99.90;;;;;;5036404;28;20055;-67
2022/04/23 05:36:26;;;;;;;4.72;1.80;;;4.70;99.90;;;;;;5028320;28;20041;-65
2022/04/23 05:38:54;;;;;;;10.35;1.70;;;4.70;99.90;;;;;;5027718;28;20034;-65
2022/04/23 05:41:22;;;;;;;3.22;1.30;;;4.80;99.90;;;;;;5016913;28;20045;-66
2022/04/23 05:43:49;;;;;;;2.85;1.63;;;4.80;99.90;;;;;;5047683;28;20057;-69
2022/04/23 05:46:17;;;;;;;9.27;1.40;;;4.80;99.90;;;;;;5028746;28;20135;-67
2022/04/23 05:48:44;;;;;;;5.78;1.88;;;4.80;99.90;;;;;;5029313;28;20072;-64
2022/04/23 05:51:11;;;;;;;7.38;2.13;;;4.80;99.90;;;;;;5031820;28;20049;-67
2022/04/23 05:53:38;;;;;;;6.10;1.40;;;4.90;99.90;;;;;;5030335;28;20049;-67
2022/04/23 05:56:05;;;;;;;5.88;2.13;;;4.90;99.90;;;;;;5026310;28;20077;-66
2022/04/23 05:58:36;;;;;;;5.10;1.48;;;4.90;99.90;;;;;;5028524;28;20135;-67
2022/04/23 06:01:04;;;;;;;4.40;1.15;;;4.90;99.90;;;;;;5030647;28;20061;-67
2022/04/23 06:03:31;;;;;;;3.95;1.58;;;5.00;99.90;;;;;;5032329;28;20100;-65
2022/04/23 06:05:58;;;;;;;6.82;1.45;;;5.00;99.90;;;;;;5035226;28;20043;-65
2022/04/23 06:08:25;;;;;;;7.65;1.50;;;5.00;99.90;;;;;;5040245;28;20839;-64
2022/04/23 06:10:52;;;;;;;3.22;1.20;;;5.00;99.90;;;;;;5020950;28;20036;-65
2022/04/23 06:13:19;;;;;;;3.10;1.75;;;5.00;99.90;;;;;;5023787;28;20042;-66
2022/04/23 06:15:46;;;;;;;5.45;1.88;;;5.00;99.90;;;;;;5017445;28;20116;-64
2022/04/23 06:18:13;;;;;;;12.35;2.30;;;5.10;99.90;;;;;;5025687;28;20095;-65
2022/04/23 06:20:40;;;;;;;4.68;1.70;;;5.10;99.90;;;;;;5030221;28;20396;-67
2022/04/23 06:23:07;;;;;;;6.13;2.08;;;5.10;99.90;;;;;;5030774;28;20390;-65
2022/04/23 06:25:33;;;;;;;10.63;1.38;;;5.20;99.90;;;;;;5026362;28;20478;-66
2022/04/23 06:28:00;;;;;;;5.60;1.60;;;5.20;99.90;;;;;;5022324;28;20041;-65
2022/04/23 06:30:27;;;;;;;2.28;1.30;;;5.30;99.90;;;;;;5028685;28;20056;-65
2022/04/23 06:32:54;;;;;;;2.42;1.83;;;5.30;99.90;;;;;;5030924;28;20137;-70
2022/04/23 06:35:22;;;;;;;5.50;1.30;;;5.30;99.90;;;;;;5051143;28;20136;-65
2022/04/23 06:37:49;;;;;;;5.40;1.83;;;5.40;99.90;;;;;;5032111;28;20136;-64
2022/04/23 06:40:16;;;;;;;3.13;1.20;;;5.40;99.90;;;;;;5023622;28;20399;-64
2022/04/23 06:42:43;;;;;;;4.78;1.80;;;5.50;99.90;;;;;;5032177;28;20080;-64
2022/04/23 06:45:11;;;;;;;7.60;2.08;;;5.50;99.90;;;;;;5018389;28;20087;-64
2022/04/23 06:47:38;;;;;;;6.60;1.52;;;5.50;99.90;;;;;;5035037;28;20035;-64
2022/04/23 06:50:06;;;;;;;2.60;1.00;;;5.50;99.90;;;;;;5034473;28;20139;-67
2022/04/23 06:52:33;;;;;;;4.15;1.38;;;5.50;99.90;;;;;;5042472;28;20117;-65
2022/04/23 06:55:00;;;;;;;5.82;1.55;;;5.60;99.90;;;;;;5042760;28;21426;-65
2022/04/23 06:57:27;;;;;;;6.88;1.60;;;5.60;99.90;;;;;;5032978;28;20059;-67
2022/04/23 06:59:54;;;;;;;8.45;1.88;;;5.60;99.90;;;;;;5035202;28;20103;-65
2022/04/23 07:02:21;;;;;;;4.43;1.73;;;5.50;99.90;;;;;;5035963;28;21040;-63
2022/04/23 07:04:48;;;;;;;5.95;1.70;;;5.60;99.90;;;;;;5037434;28;20352;-69
2022/04/23 07:07:15;;;;;;;3.70;1.45;;;5.60;99.90;;;;;;5034449;28;20117;-64
2022/04/23 07:09:42;;;;;;;11.13;2.20;;;5.70;99.90;;;;;;5036482;28;20128;-66
2022/04/23 07:12:10;;;;;;;2.58;1.15;;;5.70;99.90;;;;;;5029427;28;20065;-67
2022/04/23 07:14:38;;;;;;;4.60;1.70;;;5.70;99.90;;;;;;5031511;28;20077;-66
2022/04/23 07:17:07;;;;;;;1.20;1.10;;;5.70;99.90;;;;;;5025513;28;20037;-65
2022/04/23 07:19:39;;;;;;;4.50;2.53;;;5.70;99.90;;;;;;5026516;28;20037;-66
2022/04/23 07:22:08;;;;;;;6.68;2.13;;;5.80;99.90;;;;;;5026020;28;20051;-69
2022/04/23 07:24:35;;;;;;;3.40;1.10;;;5.70;99.90;;;;;;5030993;28;20038;-64
2022/04/23 07:27:03;;;;;;;2.85;1.38;;;5.80;99.90;;;;;;5024353;28;20037;-67
2022/04/23 07:29:30;;;;;;;4.72;1.40;;;5.70;99.90;;;;;;5011803;28;20499;-69
2022/04/23 07:31:57;;;;;;;3.53;1.45;;;5.70;99.90;;;;;;5027434;28;20068;-67
2022/04/23 07:37:28;;;;;;;9.07;1.67;;;5.70;99.90;;;;;;5042563;28;20078;-65
2022/04/23 07:40:05;;;;;;;3.95;1.52;;;5.50;99.90;;;;;;5030213;28;20040;-66
2022/04/23 07:42:32;;;;;;;6.82;1.52;;;5.60;99.90;;;;;;5041005;28;20131;-67
2022/04/23 07:44:59;;;;;;;2.22;1.52;;;5.60;99.90;;;;;;5035272;28;20037;-67
2022/04/23 07:47:28;;;;;;;3.92;2.03;;;5.60;99.90;;;;;;5035969;28;20080;-70
2022/04/23 07:49:55;;;;;;;6.85;1.95;;;5.70;99.90;;;;;;5034818;28;20297;-64
2022/04/23 07:52:22;;;;;;;2.90;1.80;;;5.70;99.90;;;;;;5034421;28;20080;-67
2022/04/23 07:54:49;;;;;;;2.47;1.55;;;5.80;99.90;;;;;;5031252;28;20049;-71
2022/04/23 07:57:21;;;;;;;3.28;1.35;;;5.80;99.90;;;;;;5042624;28;20055;-66
2022/04/23 07:59:48;;;;;;;11.95;2.17;;;5.80;99.90;;;;;;5040483;28;20165;-67
2022/04/23 08:02:15;;;;;;;7.93;2.22;;;5.80;99.90;;;;;;5035051;28;20069;-65
2022/04/23 08:04:42;;;;;;;8.32;3.63;;;5.70;99.90;;;;;;5032105;28;20029;-66
2022/04/23 08:07:09;;;;;;;4.60;2.78;;;5.70;99.90;;;;;;5034507;28;20203;-69
2022/04/23 08:09:39;;;;;;;3.00;1.85;;;5.70;99.90;;;;;;5039113;28;20123;-67
2022/04/23 08:12:09;;;;;;;5.07;1.77;;;5.90;99.90;;;;;;5041320;28;20045;-64
2022/04/23 08:14:36;;;;;;;8.82;2.58;;;5.90;99.90;;;;;;5042375;28;20059;-68
2022/04/23 08:17:03;;;;;;;5.20;2.38;;;6.10;99.90;;;;;;5034107;28;20052;-66
2022/04/23 08:19:30;;;;;;;2.25;1.77;;;6.20;99.90;;;;;;5030937;28;20454;-66
2022/04/23 08:21:57;;;;;;;2.45;1.60;;;6.30;99.90;;;;;;5041791;28;20478;-66
2022/04/23 08:24:24;;;;;;;5.30;1.45;;;6.40;99.90;;;;;;5035325;28;20029;-65
2022/04/23 08:26:51;;;;;;;5.05;2.25;;;6.20;99.90;;;;;;5028540;28;20049;-66
2022/04/23 08:32:04;;;;;;;4.90;1.52;;;6.20;99.90;;;;;;5037187;28;20047;-64
2022/04/23 08:34:31;;;;;;;4.00;1.65;;;6.20;99.90;;;;;;5033601;28;20488;-65
2022/04/23 08:36:58;;;;;;;7.40;1.77;;;6.30;99.90;;;;;;5025186;28;20069;-66
2022/04/23 08:39:25;;;;;;;5.85;1.63;;;6.40;99.90;;;;;;5031471;28;20123;-64
2022/04/23 08:41:52;;;;;;;6.40;2.30;;;6.20;99.90;;;;;;5032798;28;20040;-63
2022/04/23 08:44:21;;;;;;;4.93;2.10;;;6.20;99.90;;;;;;5040895;28;20054;-65
2022/04/23 08:46:50;;;;;;;3.70;1.90;;;6.10;99.90;;;;;;5033858;28;20128;-64
2022/04/23 08:49:17;;;;;;;5.40;1.95;;;6.00;99.90;;;;;;5036083;28;20563;-64
2022/04/23 08:51:53;;;;;;;3.17;1.45;;;6.10;99.90;;;;;;5026103;28;20096;-65
2022/04/23 08:54:23;;;;;;;4.45;2.03;;;6.10;99.90;;;;;;5034397;28;20226;-65
2022/04/23 08:56:50;;;;;;;1.88;1.58;;;6.20;99.90;;;;;;5022940;28;20042;-71
2022/04/23 08:59:20;;;;;;;5.10;1.55;;;6.10;99.90;;;;;;5030792;28;20597;-65
2022/04/23 09:01:54;;;;;;;2.80;1.67;;;6.10;99.90;;;;;;5021816;28;20041;-66
2022/04/23 09:04:21;;;;;;;1.70;1.35;;;6.00;99.90;;;;;;5030882;28;20407;-64
2022/04/23 09:06:49;;;;;;;2.53;1.50;;;5.90;99.90;;;;;;5033012;28;20041;-68
2022/04/23 09:09:20;;;;;;;4.65;1.60;;;5.90;99.90;;;;;;5033430;28;20045;-64
2022/04/23 09:11:56;;;;;;;6.53;2.28;;;6.00;99.90;;;;;;5035885;28;20115;-64
2022/04/23 09:14:27;;;;;;;6.63;1.67;;;6.10;99.90;;;;;;5035365;28;20076;-64
2022/04/23 09:25:43;;;;;;;1.92;1.70;;;6.50;99.90;;;;;;5042879;28;20033;-64
2022/04/23 09:28:17;;;;;;;6.10;1.65;;;6.60;99.90;;;;;;5041264;28;20491;-67
2022/04/23 09:30:46;;;;;;;2.40;1.77;;;6.70;99.90;;;;;;5030451;28;20033;-65
2022/04/23 09:33:13;;;;;;;6.03;1.83;;;6.80;99.90;;;;;;5035382;28;20136;-64
2022/04/23 09:36:02;;;;;;;4.45;1.98;;;6.80;99.90;;;;;;5038402;28;20044;-66
2022/04/23 09:38:30;;;;;;;3.15;1.90;;;6.60;99.90;;;;;;5024575;28;20055;-69
2022/04/23 09:40:59;;;;;;;4.90;1.77;;;6.70;99.90;;;;;;5035396;28;20722;-67
2022/04/23 09:43:29;;;;;;;7.00;2.40;;;6.70;99.90;;;;;;5040885;28;20044;-63
2022/04/23 09:46:00;;;;;;;;;;;6.60;99.90;;;;;;5032113;28;20041;-64
2022/04/23 09:48:39;;;;;;;6.65;2.88;;;6.80;99.90;;;;;;5029626;28;19921;-64
2022/04/23 09:51:26;;;;;;;8.35;2.67;;;6.70;99.90;;;;;;5037462;28;20072;-64
2022/04/23 09:53:54;;;;;;;6.28;1.92;;;6.80;99.90;;;;;;5033143;28;20041;-66
2022/04/23 09:56:24;;;;;;;10.45;2.72;;;6.90;99.90;;;;;;5036663;28;20072;-64
2022/04/23 09:58:52;;;;;;;9.70;3.33;;;6.90;99.90;;;;;;5036563;28;20042;-66
2022/04/23 10:01:20;;;;;;;9.10;1.92;;;6.90;99.90;;;;;;5040431;28;20133;-63
2022/04/23 10:03:52;;;;;;;7.55;3.35;;;6.80;99.90;;;;;;5042873;28;20147;-63
2022/04/23 10:06:21;;;;;;;8.25;2.72;;;6.80;99.90;;;;;;5030470;28;20115;-66
2022/04/23 10:08:51;;;;;;;5.65;2.88;;;6.90;99.90;;;;;;5045491;28;20503;-64
2022/04/23 10:11:24;;;;;;;11.43;2.97;;;6.90;99.90;;;;;;5042665;28;20803;-65
2022/04/23 10:14:02;;;;;;;6.05;2.15;;;6.90;99.90;;;;;;5033075;28;20065;-65
2022/04/23 10:16:30;;;;;;;6.30;2.65;;;7.00;99.90;;;;;;5043992;28;20755;-70
2022/04/23 10:18:58;;;;;;;6.63;2.13;;;7.00;99.90;;;;;;5043268;28;20718;-65
2022/04/23 10:21:48;;;;;;;9.63;4.00;;;7.20;99.90;;;;;;5039795;28;20560;-67
2022/04/23 10:24:28;;;;;;;7.93;2.55;;;7.10;99.90;;;;;;5041837;28;20096;-64
2022/04/23 10:26:59;;;;;;;8.43;2.70;;;7.20;99.90;;;;;;5035200;28;20045;-68
2022/04/23 10:29:28;;;;;;;11.48;3.20;;;7.30;99.90;;;;;;5042187;28;20140;-67
2022/04/23 10:32:13;;;;;;;5.63;2.83;;;7.40;99.90;;;;;;5042734;28;20084;-64
2022/04/23 10:34:41;;;;;;;9.38;3.05;;;7.30;99.90;;;;;;5039148;28;20756;-66
2022/04/23 10:37:19;;;;;;;4.45;1.88;;;7.50;99.90;;;;;;5041514;28;20723;-66
2022/04/23 10:39:52;;;;;;;6.20;2.78;;;7.60;99.90;;;;;;5036383;28;20399;-68
2022/04/23 10:42:24;;;;;;;8.10;3.08;;;7.70;99.90;;;;;;5036593;28;20057;-67
2022/04/23 10:44:55;;;;;;;4.53;2.92;;;7.70;99.90;;;;;;5043323;28;21688;-63
2022/04/23 10:47:34;;;;;;;10.73;3.35;;;7.80;99.90;;;;;;5041061;28;20049;-64
2022/04/23 10:52:41;;;;;;;2.70;2.00;;;7.90;99.90;;;;;;5048054;28;20446;-64
2022/04/23 10:55:09;;;;;;;5.22;1.90;;;7.80;99.90;;;;;;5041229;28;20151;-65
2022/04/23 10:57:38;;;;;;;7.70;2.88;;;7.90;99.90;;;;;;5037265;28;20382;-65
2022/04/23 11:00:17;;;;;;;4.45;2.40;;;8.00;99.90;;;;;;5038184;28;20128;-67
2022/04/23 11:03:08;;;;;;;4.60;2.38;;;8.00;99.90;;;;;;5037375;28;20132;-66
2022/04/23 11:14:37;;;;;;;8.65;2.97;;;7.40;99.90;;;;;;5036168;28;20462;-64
2022/04/23 11:17:04;;;;;;;7.40;3.60;;;7.20;99.90;;;;;;5029852;28;20044;-68
2022/04/23 11:19:32;;;;;;;18.80;4.15;;;7.10;99.90;;;;;;5029543;28;20439;-64
2022/04/23 11:21:59;;;;;;;7.53;2.88;;;7.10;99.90;;;;;;5040318;28;20049;-66
2022/04/23 11:24:28;;;;;;;6.82;3.30;;;7.00;99.90;;;;;;5029136;28;20306;-64
2022/04/23 11:26:56;;;;;;;12.77;3.90;;;6.90;99.90;;;;;;5030314;28;20045;-68
2022/04/23 11:29:25;;;;;;;9.13;2.67;;;6.90;99.90;;;;;;5033257;28;20045;-65
2022/04/23 11:31:56;;;;;;;6.30;3.30;;;6.90;99.90;;;;;;5040204;28;20895;-66
2022/04/23 11:34:24;;;;;;;8.05;2.83;;;6.80;99.90;;;;;;5030149;28;20103;-65
2022/04/23 11:36:51;;;;;;;6.32;3.58;;;6.90;99.90;;;;;;5028275;28;20059;-65
2022/04/23 11:39:25;;;;;;;7.68;3.30;;;6.90;99.90;;;;;;5038394;28;20132;-64
2022/04/23 11:41:53;;;;;;;5.00;2.75;;;6.80;99.90;;;;;;5043955;28;20131;-68
2022/04/23 11:47:13;;;;;;;17.35;4.88;;;6.90;99.90;;;;;;5015327;28;20045;-65
2022/04/23 11:49:40;;;;;;;10.85;3.60;;;7.00;99.90;;;;;;5041421;28;20036;-64
2022/04/23 11:52:11;;;;;;;7.68;3.42;;;7.10;99.90;;;;;;5025906;28;20478;-66
2022/04/23 11:54:43;;;;;;;9.80;3.08;;;7.30;99.90;;;;;;5037633;28;20045;-67
2022/04/23 11:57:13;;;;;;;11.35;3.83;;;7.50;99.90;;;;;;5034996;28;20147;-67
2022/04/23 11:59:43;;;;;;;11.32;4.70;;;7.50;99.90;;;;;;5043615;28;20124;-67
2022/04/23 12:02:23;;;;;;;4.87;2.87;;;7.60;99.90;;;;;;5032159;28;20072;-68
2022/04/23 12:04:52;;;;;;;6.43;2.75;;;7.60;99.90;;;;;;5038227;28;21071;-68
2022/04/23 12:07:21;;;;;;;6.53;3.17;;;7.70;99.90;;;;;;5031960;28;20045;-66
2022/04/23 12:09:49;;;;;;;11.48;4.75;;;7.70;99.90;;;;;;5026238;28;20073;-68
2022/04/23 12:12:19;;;;;;;5.57;3.35;;;7.80;99.90;;;;;;5030698;28;20179;-69
2022/04/23 12:14:48;;;;;;;6.72;2.85;;;7.70;99.90;;;;;;5027490;28;20769;-64
2022/04/23 12:17:26;;;;;;;7.10;3.28;;;7.90;99.90;;;;;;5026446;28;20506;-66
2022/04/23 12:19:55;;;;;;;4.03;3.08;;;8.00;99.90;;;;;;5032981;28;20136;-65
2022/04/23 12:22:24;;;;;;;3.65;3.35;;;8.20;99.90;;;;;;5035118;28;20125;-64
2022/04/23 12:24:51;;;;;;;6.75;3.03;;;8.20;99.90;;;;;;5041791;28;20072;-68
2022/04/23 12:27:17;;;;;;;8.48;4.53;;;8.20;99.90;;;;;;5025789;28;20049;-65
2022/04/23 12:40:57;;;;;;;5.32;2.92;;;8.40;99.90;;;;;;5043944;28;20374;-67
2022/04/23 12:43:28;;;;;;;8.35;3.72;;;8.50;99.90;;;;;;5037441;28;20045;-65
2022/04/23 12:46:09;;;;;;;4.65;4.13;;;8.50;99.90;;;;;;5040565;28;20133;-67
2022/04/23 12:49:05;;;;;;;7.20;3.55;;;8.30;99.90;;;;;;5030385;28;20060;-68
2022/04/23 12:51:32;;;;;;;6.05;3.00;;;8.40;99.90;;;;;;5019260;28;20166;-64
2022/04/23 12:53:59;;;;;;;9.43;4.03;;;8.40;99.90;;;;;;5027003;28;20501;-67
2022/04/23 12:56:33;;;;;;;8.00;4.03;;;8.30;99.90;;;;;;5040762;28;20055;-67
2022/04/23 12:59:02;;;;;;;6.63;4.63;;;8.30;99.90;;;;;;5030092;28;20034;-69
2022/04/23 13:01:29;;;;;;;12.75;4.20;;;8.40;99.90;;;;;;5038639;28;20148;-67
2022/04/23 13:03:57;;;;;;;8.13;4.13;;;8.60;99.90;;;;;;5024804;28;20037;-65
2022/04/23 13:09:15;;;;;;;8.90;4.22;;;8.50;99.90;;;;;;5037771;28;20049;-63
2022/04/23 13:11:41;;;;;;;7.28;3.35;;;8.40;99.90;;;;;;5040386;28;20132;-70
2022/04/23 13:14:08;;;;;;;10.65;4.00;;;8.50;99.90;;;;;;5026798;28;20131;-66
2022/04/23 13:16:39;;;;;;;7.25;3.47;;;8.60;99.90;;;;;;5030626;28;20773;-63
2022/04/23 13:19:14;;;;;;;5.63;4.03;;;8.60;99.90;;;;;;5037596;28;20060;-65
2022/04/23 13:21:42;;;;;;;7.60;4.10;;;8.70;99.90;;;;;;5033008;28;20152;-69
2022/04/23 13:24:09;;;;;;;9.07;3.85;;;8.80;99.90;;;;;;5028829;28;20066;-66
2022/04/23 13:26:36;;;;;;;10.07;3.90;;;9.00;99.90;;;;;;5041187;28;20128;-68
2022/04/23 13:29:03;;;;;;;4.28;3.58;;;9.00;99.90;;;;;;5038805;28;20132;-69
2022/04/23 13:31:30;;;;;;;17.35;4.35;;;9.00;99.90;;;;;;5024149;28;20704;-65
2022/04/23 13:33:57;;;;;;;4.93;3.58;;;8.90;99.90;;;;;;5032842;28;20041;-64
2022/04/23 13:36:24;;;;;;;7.32;4.95;;;8.80;99.90;;;;;;5034517;28;20089;-70
2022/04/23 13:38:51;;;;;;;7.47;4.50;;;8.80;99.90;;;;;;5024018;28;20128;-70
2022/04/23 13:41:19;;;;;;;6.05;3.85;;;8.70;99.90;;;;;;5024122;28;20080;-65
2022/04/23 13:43:48;;;;;;;5.80;4.30;;;8.70;99.90;;;;;;5033071;28;20048;-70
2022/04/23 13:46:15;;;;;;;10.02;4.40;;;8.70;99.90;;;;;;5036030;28;20095;-66
2022/04/23 13:48:43;;;;;;;7.53;4.72;;;8.60;99.90;;;;;;5033770;28;20048;-65